Station: Carters Bore

  Atmospheric Gas Attenuation - ITU Rec 676-11   --------------- db/100km ---------------
Date Time Temp RH % AH g/m3 Dew Point Wind Direction Speed kph Gust kph Barometer mB Rainfall Since 9am 24GHz 47GHz 76GHz 122GHz 134GHz 241GHz
27 01:50 25.7 15 3.59 -2.9 7 9 1013.1 0 8.7 16.4 18.8 48.4 33.2 110.8
27 01:40 25.9 16 3.87 -1.9 7 7 1013.1 0 9.2 16.7 19.5 50.4 35.7 119.8
27 01:30 26.2 16 3.94 -1.6 9 11 1013.1 0 9.4 16.7 19.7 50.7 36.3 121.7
27 01:20 25 18 4.14 -1 7 7 1013.1 0 9.8 17.1 20.5 53.0 38.7 130.1
27 01:10 23.6 22 4.68 0.6 6 6 1013.1 0 11.0 18.0 22.5 58.2 44.7 151.0
27 01:00 23.5 23 4.86 1.2 0 2 1013.1 0 11.3 18.3 23.0 59.7 46.5 157.6
27 00:50 23.8 24 5.16 2 2 4 1013.1 0 12.0 18.6 23.9 62.0 49.4 167.7
27 00:40 24.2 24 5.28 2.3 2 2 1013.1 0 12.2 18.7 24.1 62.7 50.4 171.2
27 00:30 24.7 23 5.21 2.2 6 6 1013.1 0 12.0 18.5 23.8 61.7 49.4 167.7
27 00:20 25 20 4.6 0.5 6 6 1013.1 0 10.8 17.7 21.8 56.6 43.2 145.8
27 00:10 24.7 22 4.98 1.5 6 6 1013.1 0 11.6 18.2 23.1 59.9 47.1 159.6
27 00:00 25.1 21 4.86 1.3 4 6 1013.1 0 11.3 18.0 22.6 58.6 45.7 154.6
26 23:50 25.4 19 4.47 0.1 4 6 1013.1 0 10.5 17.4 21.4 55.3 41.7 140.7
26 23:40 25.6 19 4.52 0.2 4 4 1013.1 0 10.6 17.5 21.5 55.6 42.1 142.1
26 23:30 26.3 18 4.46 0.1 4 6 1013.1 0 10.4 17.3 21.1 54.7 41.1 138.9
26 23:20 26.6 18 4.53 0.3 4 6 1013.1 0 10.6 17.3 21.2 55.0 41.7 140.8
26 22:35 27.2 18 4.68 0.8 4 6 1013.1 0 10.9 17.4 21.5 55.8 42.8 144.8
26 22:30 27.1 18 4.66 0.8 6 7 1013.1 0 10.8 17.4 21.5 55.7 42.7 144.3
26 22:20 27.5 18 4.76 1 6 6 1013.1 0 11.0 17.4 21.7 56.2 43.4 147.0
26 21:47 27.8 19 5.11 2 4 4 1013.1 0 11.7 17.8 22.6 58.7 46.6 158.3
26 21:40 28.2 18 4.95 1.6 0 0 1013.1 0 11.4 17.5 22.0 57.2 44.9 152.1
26 21:30 28.8 17 4.83 1.3 6 6 1013.1 0 11.1 17.3 21.6 55.9 43.4 147.1
26 21:20 29 16 4.6 0.6 6 6 1013.1 0 10.7 17.0 20.9 54.0 41.2 139.2
26 21:10 29.3 16 4.67 0.9 4 4 1013.1 0 10.8 17.0 21.0 54.4 41.7 141.0
26 20:19 31.2 13 4.21 -0.5 4 4 1013.1 0 9.8 16.2 19.3 49.8 36.6 123.3
26 20:10 32.1 12 4.07 -0.9 6 7 1013.1 0 9.5 15.9 18.7 48.3 35.0 117.7
26 20:00 32.5 12 4.16 -0.5 9 11 1013.1 0 9.7 15.9 18.9 48.7 35.6 119.9
26 19:50 32.8 12 4.23 -0.4 9 11 1013.1 0 9.8 15.9 19.0 49.0 36.1 121.7
26 19:40 33.1 11 3.94 -1.3 11 13 1013.1 0 9.2 15.6 18.2 46.8 33.5 112.4
26 19:30 33.6 11 4.04 -0.9 11 17 1013.1 0 9.4 15.6 18.3 47.3 34.1 114.8
26 19:20 33.7 11 4.06 -0.9 7 9 1013.1 0 9.4 15.6 18.3 47.4 34.3 115.3
26 19:10 33.9 11 4.11 -0.7 13 15 1013.1 0 9.5 15.6 18.4 47.6 34.6 116.5
26 19:00 34.1 11 4.15 -0.5 13 17 1013.1 0 9.6 15.6 18.5 47.8 34.9 117.5
26 18:50 34.4 11 4.22 -0.3 13 17 1013.1 0 9.7 15.6 18.6 48.1 35.3 119.2
26 18:40 34.7 11 4.28 -0.1 9 11 1013.1 0 9.9 15.7 18.7 48.3 35.7 120.6
26 18:30 35.1 10 3.98 -1.1 15 22 1013.1 0 9.2 15.3 17.8 46.1 33.0 111.1
26 18:20 35.1 10 3.98 -1.1 11 15 1013.1 0 9.2 15.3 17.8 46.1 33.0 111.1
26 18:10 35.1 10 3.98 -1.1 13 17 1013.1 0 9.2 15.3 17.8 46.1 33.0 111.1
26 18:00 35.5 10 4.06 -0.8 13 24 1013.1 0 9.4 15.3 18.0 46.4 33.6 112.9
26 17:50 35.5 10 4.06 -0.8 15 19 1013.1 0 9.4 15.3 18.0 46.4 33.6 112.9
26 17:40 35.4 11 4.44 0.4 11 13 1013.1 0 10.2 15.7 19.0 49.1 36.8 124.5
26 17:30 35.6 10 4.08 -0.7 11 24 1013.1 0 9.4 15.3 18.0 46.5 33.7 113.4
26 17:20 35.7 10 4.1 -0.6 11 13 1013.1 0 9.5 15.3 18.0 46.6 33.8 113.9
26 17:10 35.5 10 4.06 -0.8 11 15 1013.1 0 9.4 15.3 18.0 46.4 33.6 112.9
26 17:00 35.8 10 4.12 -0.5 17 28 1013.1 0 9.5 15.3 18.1 46.6 33.9 114.3
26 16:50 35.9 10 4.14 -0.5 17 24 1013.1 0 9.5 15.3 18.1 46.7 34.1 114.8
26 16:40 36 10 4.17 -0.4 15 17 1013.1 0 9.6 15.3 18.1 46.9 34.3 115.6
26 16:30 36 10 4.17 -0.4 9 20 1013.1 0 9.6 15.3 18.1 46.9 34.3 115.6
26 16:20 36.4 10 4.25 -0.1 17 20 1013.1 0 9.7 15.4 18.3 47.2 34.8 117.4
26 16:10 35.8 10 4.12 -0.6 9 11 1013.1 0 9.5 15.3 18.1 46.6 33.9 114.3
26 16:00 36.2 10 4.21 -0.2 19 30 1013.1 0 9.7 15.4 18.2 47.0 34.5 116.5
26 15:50 36.2 10 4.21 -0.3 7 17 1013.1 0 9.7 15.4 18.2 47.0 34.5 116.5
26 15:40 35.9 11 4.56 0.8 6 7 1013.1 0 10.4 15.8 19.2 49.6 37.6 127.4
26 15:30 35.7 10 4.1 -0.6 9 19 1013.1 0 9.5 15.3 18.0 46.6 33.8 113.9
26 15:20 36.3 10 4.23 -0.2 13 19 1013.1 0 9.7 15.4 18.2 47.1 34.7 117.0
26 15:10 35.3 11 4.42 0.4 2 4 1013.1 0 10.1 15.7 18.9 49.0 36.7 124.0
26 15:00 35.5 11 4.47 0.6 7 20 1013.1 0 10.2 15.7 19.0 49.2 37.0 125.2
26 14:50 35 11 4.35 0.1 17 20 1013.1 0 10.0 15.7 18.8 48.7 36.2 122.3
26 14:40 35.2 11 4.4 0.3 7 13 1013.1 0 10.1 15.7 18.9 48.9 36.6 123.5
26 14:30 34.9 12 4.72 1.3 9 17 1013.1 0 10.7 16.1 19.8 51.3 39.5 133.7
26 14:20 35.2 11 4.4 0.3 11 22 1013.1 0 10.1 15.7 18.9 48.9 36.6 123.5
26 14:10 35.6 11 4.49 0.6 11 13 1013.1 0 10.3 15.7 19.1 49.3 37.2 125.7
26 14:00 35.8 11 4.54 0.8 9 22 1013.1 0 10.3 15.8 19.1 49.5 37.5 126.9
26 13:50 35 11 4.35 0.1 7 9 1013.1 0 10.0 15.7 18.8 48.7 36.2 122.3
26 13:40 35.3 12 4.82 1.6 13 19 1013.1 0 10.9 16.1 20.0 51.8 40.1 136.2
26 13:30 34.7 12 4.67 1.1 13 28 1013.1 0 10.6 16.1 19.7 51.1 39.1 132.5
26 13:20 34.5 12 4.62 1 15 19 1013.1 0 10.5 16.1 19.6 50.8 38.8 131.3
26 13:10 35.1 12 4.77 1.4 15 19 1013.1 0 10.8 16.1 19.9 51.5 39.8 135.0
26 13:00 34.6 12 4.65 1.1 15 24 1013.1 0 10.6 16.1 19.7 51.0 39.0 132.0
26 12:50 34.5 12 4.62 1 11 15 1013.1 0 10.5 16.1 19.6 50.8 38.8 131.3
26 12:40 34 13 4.88 1.7 13 17 1013.1 0 11.1 16.4 20.4 53.0 41.3 140.1
26 12:30 33.7 13 4.8 1.5 9 20 1013.1 0 10.9 16.4 20.3 52.6 40.7 138.1
26 12:20 33.7 13 4.8 1.4 9 15 1013.1 0 10.9 16.4 20.3 52.6 40.7 138.1
26 12:10 33.3 13 4.7 1.1 11 13 1013.1 0 10.7 16.3 20.1 52.1 40.0 135.6
26 12:00 33 13 4.63 0.9 17 26 1013.1 0 10.6 16.3 20.0 51.8 39.5 133.8
26 11:50 33.4 13 4.73 1.2 15 19 1013.1 0 10.8 16.4 20.2 52.3 40.2 136.4
26 11:40 33.3 12 4.34 0 15 20 1013.1 0 10.0 16.0 19.2 49.5 36.8 124.4
26 11:30 32.7 12 4.21 -0.4 15 22 1013.1 0 9.8 15.9 18.9 49.0 36.0 121.2
26 11:20 32.7 12 4.21 -0.4 19 22 1013.1 0 9.8 15.9 18.9 49.0 36.0 121.2
26 11:10 32 13 4.39 0.1 20 24 1013.1 0 10.1 16.2 19.6 50.7 37.9 127.8
26 11:00 32.2 12 4.1 -0.8 19 26 1013.1 0 9.5 15.9 18.8 48.5 35.2 118.5
26 10:50 31.6 13 4.3 -0.2 20 24 1013.1 0 10.0 16.2 19.4 50.2 37.2 125.6
26 10:40 31.5 13 4.27 -0.3 22 28 1013.1 0 9.9 16.2 19.4 50.1 37.0 124.8
26 10:30 31 12 3.84 -1.7 19 28 1013.1 0 9.0 15.8 18.3 47.3 33.4 112.0
26 10:20 30 12 3.64 -2.5 19 24 1013.1 0 8.7 15.7 18.0 46.4 32.0 107.0
26 10:10 30.4 12 3.72 -2.2 19 22 1013.1 0 8.8 15.7 18.1 46.7 32.6 109.0
26 10:00 29.4 11 3.23 -4.1 19 28 1013.1 0 7.8 15.4 17.0 43.8 28.6 95.0
26 09:50 28.6 12 3.37 -3.6 20 24 1013.1 0 8.1 15.6 17.6 45.2 30.1 100.2
26 09:40 28 12 3.26 -4.1 15 19 1013.1 0 7.9 15.6 17.4 44.7 29.4 97.4
26 09:30 27.5 12 3.18 -4.4 17 28 1013.1 0 7.8 15.6 17.3 44.4 28.8 95.5
26 09:20 27 13 3.35 -3.8 19 22 1013.1 0 8.1 15.9 17.8 45.9 30.5 101.4
26 09:10 26.4 13 3.24 -4.2 15 22 1013.1 0 7.9 15.9 17.7 45.4 29.7 98.6
26 09:00 24.9 15 3.43 -3.5 9 17 1013.1 0 8.4 16.3 18.5 47.6 32.0 106.6
26 08:50 24.2 16 3.52 -3.2 7 9 1013.1 0 8.6 16.5 18.9 48.7 33.1 110.4
26 08:40 23.8 15 3.23 -4.4 9 11 1013.1 0 8.0 16.3 18.2 46.7 30.6 101.3
26 08:30 23.6 16 3.4 -3.7 7 11 1013.1 0 8.3 16.5 18.7 48.1 32.2 107.2
26 08:20 23.4 15 3.15 -4.7 9 11 1013.1 0 7.8 16.2 18.0 46.3 30.0 99.1
26 08:00 23.3 15 3.14 -4.8 7 11 1013.1 0 7.8 16.2 18.0 46.3 29.9 98.9
26 07:55 23.3 15 3.14 -4.8 7 9 1013.1 0 7.8 16.2 18.0 46.3 29.9 98.9
26 07:50 23.3 15 3.14 -4.8 6 7 1013.1 0 7.8 16.2 18.0 46.3 29.9 98.9

Last Refresh: 27-Feb-2021 02:37:16

Most of the information presented on this site is sourced from the Bureau of Meteorology.  Copyright in all material sourced from the Bureau of Meteorology resides with the Commonwealth of Australia.